createdAt,value
2017-07-27T00:00:38.631Z,20.06
2017-07-27T00:03:06.035Z,19.98
2017-07-27T00:05:33.426Z,20.01
2017-07-27T00:08:00.836Z,19.98
2017-07-27T00:10:28.238Z,19.95
2017-07-27T00:12:55.639Z,20.02
2017-07-27T00:15:23.035Z,19.94
2017-07-27T00:17:50.455Z,19.89
2017-07-27T00:20:17.851Z,19.89
2017-07-27T00:22:45.255Z,19.82
2017-07-27T00:25:12.654Z,19.76
2017-07-27T00:27:40.061Z,19.74
2017-07-27T00:30:07.466Z,19.69
2017-07-27T00:32:34.862Z,19.67
2017-07-27T00:35:02.254Z,19.72
2017-07-27T00:37:29.663Z,19.72
2017-07-27T00:39:57.055Z,19.65
2017-07-27T00:42:24.471Z,19.70
2017-07-27T00:44:51.861Z,19.53
2017-07-27T00:47:19.256Z,19.53
2017-07-27T00:49:46.664Z,19.60
2017-07-27T00:52:14.053Z,19.54
2017-07-27T00:54:41.459Z,19.54
2017-07-27T00:57:08.855Z,19.53
2017-07-27T00:59:36.255Z,19.49
2017-07-27T01:02:03.651Z,19.49
2017-07-27T01:04:31.054Z,19.49
2017-07-27T01:06:58.450Z,19.48
2017-07-27T01:09:25.850Z,19.44
2017-07-27T01:11:53.250Z,19.43
2017-07-27T01:14:20.654Z,19.48
2017-07-27T01:16:48.618Z,19.51
2017-07-27T01:19:16.015Z,19.52
2017-07-27T01:21:43.415Z,19.53
2017-07-27T01:24:10.818Z,19.50
2017-07-27T01:26:38.209Z,19.44
2017-07-27T01:29:05.613Z,19.43
2017-07-27T01:31:33.334Z,19.50
2017-07-27T01:34:00.730Z,19.53
2017-07-27T01:36:28.118Z,19.62
2017-07-27T01:38:55.522Z,19.59
2017-07-27T01:41:22.914Z,19.61
2017-07-27T01:43:50.318Z,19.55
2017-07-27T01:46:17.715Z,19.56
2017-07-27T01:48:45.122Z,19.62
2017-07-27T01:51:12.510Z,19.58
2017-07-27T01:53:39.934Z,19.58
2017-07-27T01:56:07.328Z,19.57
2017-07-27T01:58:34.741Z,19.62
2017-07-27T02:01:02.133Z,19.64
2017-07-27T02:03:29.523Z,19.62
2017-07-27T02:05:56.922Z,19.64
2017-07-27T02:08:24.314Z,19.68
2017-07-27T02:10:51.718Z,19.65
2017-07-27T02:13:19.119Z,19.67
2017-07-27T02:15:46.532Z,19.69
2017-07-27T02:18:13.930Z,19.70
2017-07-27T02:20:41.347Z,19.67
2017-07-27T02:23:08.736Z,19.68
2017-07-27T02:25:36.132Z,19.72
2017-07-27T02:28:03.524Z,19.75
2017-07-27T02:30:30.919Z,19.75
2017-07-27T02:32:58.308Z,19.75
2017-07-27T02:35:25.975Z,19.72
2017-07-27T02:37:53.359Z,19.72
2017-07-27T02:40:20.762Z,19.78
2017-07-27T02:42:48.154Z,19.77
2017-07-27T02:45:15.556Z,19.71
2017-07-27T02:47:42.942Z,19.72
2017-07-27T02:50:10.348Z,19.69
2017-07-27T02:52:37.726Z,19.54
2017-07-27T02:55:05.162Z,19.59
2017-07-27T02:57:32.778Z,19.63
2017-07-27T03:00:00.171Z,19.67
2017-07-27T03:02:27.559Z,19.69
2017-07-27T03:04:54.947Z,19.70
2017-07-27T03:07:22.334Z,19.69
2017-07-27T03:09:49.739Z,19.69
2017-07-27T03:12:17.129Z,19.67
2017-07-27T03:14:44.531Z,19.75
2017-07-27T03:17:11.917Z,19.75
2017-07-27T03:19:39.302Z,19.74
2017-07-27T03:22:06.698Z,19.71
2017-07-27T03:24:34.090Z,19.70
2017-07-27T03:27:01.490Z,19.70
2017-07-27T03:29:28.887Z,19.69
2017-07-27T03:31:56.295Z,19.63
2017-07-27T03:34:23.727Z,19.71
2017-07-27T03:36:51.118Z,19.66
2017-07-27T03:39:18.501Z,19.69
2017-07-27T03:41:45.908Z,19.68
2017-07-27T03:44:13.302Z,19.64
2017-07-27T03:46:40.699Z,19.69
2017-07-27T03:49:08.082Z,19.67
2017-07-27T03:51:35.478Z,19.71
2017-07-27T03:54:02.883Z,19.62
2017-07-27T03:56:30.279Z,19.63
2017-07-27T03:58:57.663Z,19.63
2017-07-27T04:01:25.070Z,19.63
2017-07-27T04:03:52.459Z,19.67
2017-07-27T04:06:20.134Z,19.67
2017-07-27T04:08:47.523Z,19.69
2017-07-27T04:11:14.927Z,19.70
2017-07-27T04:13:42.319Z,19.61
2017-07-27T04:16:09.718Z,19.62
2017-07-27T04:18:37.102Z,19.62
2017-07-27T04:21:04.507Z,19.64
2017-07-27T04:23:31.894Z,19.67
2017-07-27T04:25:59.290Z,19.68
2017-07-27T04:28:26.698Z,19.64
2017-07-27T04:30:54.119Z,19.68
2017-07-27T04:33:21.545Z,19.66
2017-07-27T04:35:48.934Z,19.63
2017-07-27T04:38:16.326Z,19.63
2017-07-27T04:40:43.722Z,19.65
2017-07-27T04:43:11.123Z,19.66
2017-07-27T04:45:38.511Z,19.65
2017-07-27T04:48:05.907Z,19.67
2017-07-27T04:50:33.303Z,19.67
2017-07-27T04:53:00.730Z,19.62
2017-07-27T04:55:28.118Z,19.61
2017-07-27T04:58:00.398Z,19.62
2017-07-27T05:00:27.830Z,19.60
2017-07-27T05:02:55.298Z,19.61
2017-07-27T05:05:22.727Z,19.64
2017-07-27T05:07:50.171Z,19.71
2017-07-27T05:10:17.559Z,19.66
2017-07-27T05:12:44.963Z,19.64
2017-07-27T05:15:12.351Z,19.61
2017-07-27T05:17:39.751Z,19.69
2017-07-27T05:22:57.610Z,19.62
2017-07-27T05:25:25.006Z,19.68
2017-07-27T05:27:52.399Z,19.59
2017-07-27T05:30:19.786Z,19.62
2017-07-27T05:32:47.325Z,19.62
2017-07-27T05:35:14.763Z,19.57
2017-07-27T05:37:42.164Z,19.56
2017-07-27T05:40:09.774Z,19.57
2017-07-27T05:42:37.158Z,19.62
2017-07-27T05:45:04.556Z,19.66
2017-07-27T05:47:31.958Z,19.68
2017-07-27T05:49:59.439Z,19.70
2017-07-27T05:52:26.928Z,19.68
2017-07-27T05:54:54.298Z,19.74
2017-07-27T05:57:21.703Z,19.70
2017-07-27T05:59:49.095Z,19.69
2017-07-27T06:02:16.502Z,19.54
2017-07-27T06:04:44.027Z,19.55
2017-07-27T06:07:11.730Z,19.63
2017-07-27T06:09:39.391Z,19.63
2017-07-27T06:12:06.851Z,19.71
2017-07-27T06:14:34.247Z,19.69
2017-07-27T06:17:01.644Z,19.77
2017-07-27T06:19:29.073Z,19.74
2017-07-27T06:21:56.471Z,19.79
2017-07-27T06:24:24.092Z,19.73
2017-07-27T06:26:51.572Z,19.79
2017-07-27T06:29:18.964Z,19.81
2017-07-27T06:31:46.350Z,19.81
2017-07-27T06:34:13.742Z,19.84
2017-07-27T06:36:41.132Z,19.86
2017-07-27T06:39:08.522Z,19.80
2017-07-27T06:41:35.906Z,19.86
2017-07-27T06:44:03.306Z,19.91
2017-07-27T06:48:57.384Z,19.92
2017-07-27T06:51:24.766Z,19.85
2017-07-27T06:56:19.119Z,19.90
2017-07-27T06:58:46.535Z,19.95
2017-07-27T07:01:13.922Z,19.99
2017-07-27T07:03:41.319Z,20.08
2017-07-27T07:06:08.715Z,20.13
2017-07-27T07:08:36.116Z,20.16
2017-07-27T07:11:03.502Z,20.26
2017-07-27T07:13:30.906Z,20.27
2017-07-27T07:15:58.295Z,20.22
2017-07-27T07:18:25.694Z,20.08
2017-07-27T07:20:53.090Z,20.11
2017-07-27T07:23:20.478Z,20.14
2017-07-27T07:25:47.900Z,20.25
2017-07-27T07:28:15.305Z,20.33
2017-07-27T07:30:42.704Z,20.27
2017-07-27T07:33:10.094Z,20.30
2017-07-27T07:35:37.482Z,20.38
2017-07-27T07:38:04.875Z,20.41
2017-07-27T07:40:32.274Z,20.39
2017-07-27T07:42:59.659Z,20.47
2017-07-27T07:45:27.063Z,20.50
2017-07-27T07:47:54.445Z,20.55
2017-07-27T07:50:21.859Z,20.60
2017-07-27T07:52:49.255Z,20.58
2017-07-27T07:55:16.654Z,20.61
2017-07-27T07:57:44.038Z,20.56
2017-07-27T08:00:11.663Z,20.61
2017-07-27T08:02:39.054Z,20.67
2017-07-27T08:05:06.454Z,20.72
2017-07-27T08:07:33.852Z,20.64
2017-07-27T08:10:13.131Z,20.61
2017-07-27T08:12:40.519Z,20.65
2017-07-27T08:15:07.910Z,20.64
2017-07-27T08:17:35.307Z,20.65
2017-07-27T08:20:02.698Z,20.71
2017-07-27T08:22:30.098Z,20.72
2017-07-27T08:24:57.495Z,20.77
2017-07-27T08:27:24.895Z,20.83
2017-07-27T08:29:52.303Z,20.80
2017-07-27T08:32:19.687Z,20.80
2017-07-27T08:34:47.090Z,20.88
2017-07-27T08:37:14.479Z,20.85
2017-07-27T08:39:41.899Z,20.92
2017-07-27T08:42:09.523Z,21.00
2017-07-27T08:44:36.936Z,21.11
2017-07-27T08:47:04.329Z,21.13
2017-07-27T08:49:31.710Z,21.14
2017-07-27T08:51:59.104Z,21.02
2017-07-27T08:54:26.491Z,21.11
2017-07-27T08:56:53.895Z,21.21
2017-07-27T08:59:21.283Z,21.25
2017-07-27T09:01:48.678Z,21.30
2017-07-27T09:04:16.058Z,21.32
2017-07-27T09:06:43.463Z,21.39
2017-07-27T09:09:10.834Z,21.47
2017-07-27T09:11:38.226Z,21.35
2017-07-27T09:14:05.616Z,21.32
2017-07-27T09:16:33.011Z,21.40
2017-07-27T09:19:00.400Z,21.36
2017-07-27T09:21:27.782Z,21.37
2017-07-27T09:23:55.163Z,21.40
2017-07-27T09:26:22.560Z,21.47
2017-07-27T09:28:49.965Z,21.45
2017-07-27T09:31:17.355Z,21.49
2017-07-27T09:33:44.743Z,21.50
2017-07-27T09:36:12.406Z,21.57
2017-07-27T09:38:39.795Z,21.50
2017-07-27T09:41:07.197Z,21.53
2017-07-27T09:43:34.578Z,21.59
2017-07-27T09:46:01.959Z,21.68
2017-07-27T09:48:29.374Z,21.71
2017-07-27T09:50:56.758Z,21.70
2017-07-27T09:53:24.149Z,21.77
2017-07-27T09:55:51.531Z,21.83
2017-07-27T09:58:18.927Z,21.90
2017-07-27T10:00:46.306Z,21.96
2017-07-27T10:03:13.707Z,21.91
2017-07-27T10:05:41.091Z,21.90
2017-07-27T10:08:08.515Z,21.92
2017-07-27T10:10:35.902Z,22.00
2017-07-27T10:13:03.326Z,22.10
2017-07-27T10:15:30.706Z,22.20
2017-07-27T10:17:58.351Z,22.32
2017-07-27T10:20:25.735Z,22.35
2017-07-27T10:22:53.188Z,22.35
2017-07-27T10:25:20.558Z,22.28
2017-07-27T10:27:47.951Z,22.28
2017-07-27T10:30:15.337Z,22.25
2017-07-27T10:32:42.726Z,22.32
2017-07-27T10:35:10.587Z,22.34
2017-07-27T10:37:37.970Z,22.34
2017-07-27T10:40:05.351Z,22.34
2017-07-27T10:42:32.742Z,22.40
2017-07-27T10:45:00.122Z,22.52
2017-07-27T10:47:27.517Z,22.58
2017-07-27T10:49:54.894Z,22.63
2017-07-27T10:52:22.283Z,22.80
2017-07-27T10:54:49.663Z,22.83
2017-07-27T10:57:17.054Z,22.86
2017-07-27T10:59:44.462Z,22.89
2017-07-27T11:02:11.847Z,22.90
2017-07-27T11:04:39.265Z,22.96
2017-07-27T11:07:06.639Z,23.05
2017-07-27T11:09:34.251Z,22.99
2017-07-27T11:12:01.661Z,23.02
2017-07-27T11:14:29.046Z,23.06
2017-07-27T11:16:56.431Z,23.14
2017-07-27T11:19:23.824Z,23.22
2017-07-27T11:24:33.051Z,23.21
2017-07-27T11:27:00.426Z,23.20
2017-07-27T11:29:27.822Z,23.19
2017-07-27T11:31:55.212Z,23.23
2017-07-27T11:34:22.607Z,23.24
2017-07-27T11:36:49.999Z,23.33
2017-07-27T11:39:17.382Z,23.28
2017-07-27T11:41:44.762Z,23.40
2017-07-27T11:44:12.150Z,23.42
2017-07-27T11:46:39.539Z,23.51
2017-07-27T11:49:06.984Z,23.57
2017-07-27T11:51:34.384Z,23.59
2017-07-27T11:54:01.998Z,23.61
2017-07-27T11:56:29.597Z,23.55
2017-07-27T11:58:56.995Z,23.57
2017-07-27T12:01:24.379Z,23.69
2017-07-27T12:03:51.770Z,23.78
2017-07-27T12:06:19.154Z,23.82
2017-07-27T12:08:46.551Z,23.79
2017-07-27T12:11:13.938Z,23.74
2017-07-27T12:13:41.326Z,23.70
2017-07-27T12:16:08.707Z,23.77
2017-07-27T12:18:36.111Z,23.80
2017-07-27T12:21:03.527Z,23.84
2017-07-27T12:23:30.919Z,23.89
2017-07-27T12:25:58.317Z,23.93
2017-07-27T12:28:25.691Z,23.96
2017-07-27T12:30:53.087Z,23.92
2017-07-27T12:33:20.475Z,23.96
2017-07-27T12:35:47.867Z,24.02
2017-07-27T12:38:15.254Z,24.03
2017-07-27T12:40:42.654Z,24.13
2017-07-27T12:43:10.030Z,24.02
2017-07-27T12:45:37.419Z,24.09
2017-07-27T12:48:04.811Z,24.12
2017-07-27T12:50:32.190Z,24.18
2017-07-27T12:52:59.583Z,24.22
2017-07-27T12:55:27.238Z,24.27
2017-07-27T12:57:54.647Z,24.41
2017-07-27T13:00:22.023Z,24.44
2017-07-27T13:02:49.410Z,24.52
2017-07-27T13:05:16.803Z,24.62
2017-07-27T13:07:44.187Z,24.67
2017-07-27T13:10:11.574Z,24.75
2017-07-27T13:12:38.967Z,24.76
2017-07-27T13:15:06.376Z,24.81
2017-07-27T13:17:33.760Z,24.82
2017-07-27T13:20:01.147Z,24.87
2017-07-27T13:22:28.526Z,24.74
2017-07-27T13:24:55.939Z,24.76
2017-07-27T13:27:23.318Z,24.76
2017-07-27T13:29:50.918Z,24.87
2017-07-27T13:32:18.303Z,24.95
2017-07-27T13:34:45.690Z,24.83
2017-07-27T13:37:13.084Z,24.86
2017-07-27T13:39:40.455Z,24.93
2017-07-27T13:42:07.842Z,24.88
2017-07-27T13:44:35.228Z,24.77
2017-07-27T13:47:02.621Z,24.79
2017-07-27T13:49:30.008Z,24.84
2017-07-27T13:51:57.408Z,24.67
2017-07-27T13:54:24.800Z,24.58
2017-07-27T13:56:52.220Z,24.43
2017-07-27T13:59:19.616Z,24.30
2017-07-27T14:01:47.009Z,24.35
2017-07-27T14:04:14.397Z,24.50
2017-07-27T14:06:41.789Z,24.56
2017-07-27T14:09:09.178Z,24.59
2017-07-27T14:11:36.575Z,24.53
2017-07-27T14:14:03.962Z,24.61
2017-07-27T14:16:31.359Z,24.59
2017-07-27T14:18:59.030Z,24.61
2017-07-27T14:21:26.418Z,24.69
2017-07-27T14:23:54.020Z,24.72
2017-07-27T14:26:21.407Z,24.73
2017-07-27T14:28:48.810Z,24.78
2017-07-27T14:31:16.292Z,24.80
2017-07-27T14:33:43.685Z,24.80
2017-07-27T14:36:11.068Z,24.66
2017-07-27T14:38:38.582Z,24.59
2017-07-27T14:41:05.967Z,24.52
2017-07-27T14:43:33.362Z,24.64
2017-07-27T14:46:00.747Z,24.65
2017-07-27T14:48:28.138Z,24.67
2017-07-27T14:50:55.536Z,24.50
2017-07-27T14:53:22.926Z,24.47
2017-07-27T14:55:50.310Z,24.61
2017-07-27T14:58:17.919Z,24.67
2017-07-27T15:00:45.306Z,24.66
2017-07-27T15:03:12.750Z,24.70
2017-07-27T15:05:40.128Z,24.73
2017-07-27T15:08:07.559Z,24.72
2017-07-27T15:10:34.935Z,24.73
2017-07-27T15:13:02.335Z,24.65
2017-07-27T15:15:29.721Z,24.74
2017-07-27T15:17:57.103Z,24.75
2017-07-27T15:20:24.499Z,24.88
2017-07-27T15:22:53.264Z,24.90
2017-07-27T15:25:20.838Z,24.79
2017-07-27T15:27:48.232Z,24.72
2017-07-27T15:30:15.610Z,24.84
2017-07-27T15:32:43.014Z,24.95
2017-07-27T15:35:10.400Z,24.97
2017-07-27T15:37:37.786Z,24.96
2017-07-27T15:40:05.184Z,24.89
2017-07-27T15:42:32.574Z,24.86
2017-07-27T15:44:59.962Z,24.83
2017-07-27T15:47:27.598Z,24.84
2017-07-27T15:49:54.982Z,24.91
2017-07-27T15:52:22.386Z,24.95
2017-07-27T15:54:49.819Z,25.00
2017-07-27T15:57:17.198Z,24.96
2017-07-27T15:59:44.701Z,24.79
2017-07-27T16:02:12.078Z,24.69
2017-07-27T16:04:39.471Z,24.68
2017-07-27T16:07:06.855Z,24.61
2017-07-27T16:12:24.891Z,24.67
2017-07-27T16:14:52.298Z,24.74
2017-07-27T16:17:19.680Z,24.79
2017-07-27T16:19:47.060Z,24.93
2017-07-27T16:22:14.446Z,25.09
2017-07-27T16:24:42.062Z,25.14
2017-07-27T16:27:09.464Z,25.13
2017-07-27T16:29:36.838Z,25.23
2017-07-27T16:34:54.625Z,25.23
2017-07-27T16:37:22.006Z,25.09
2017-07-27T16:39:51.295Z,25.07
2017-07-27T16:42:18.749Z,25.04
2017-07-27T16:44:46.138Z,24.96
2017-07-27T16:47:13.524Z,24.89
2017-07-27T16:49:40.910Z,24.89
2017-07-27T16:52:08.295Z,24.92
2017-07-27T16:54:35.682Z,24.90
2017-07-27T16:57:03.062Z,24.96
2017-07-27T16:59:30.452Z,24.86
2017-07-27T17:01:57.835Z,24.84
2017-07-27T17:04:25.222Z,24.98
2017-07-27T17:06:52.609Z,24.92
2017-07-27T17:11:53.790Z,25.14
2017-07-27T17:14:21.179Z,25.17
2017-07-27T17:16:48.562Z,25.27
2017-07-27T17:19:15.955Z,25.40
2017-07-27T17:21:43.336Z,25.42
2017-07-27T17:24:10.735Z,25.45
2017-07-27T17:26:38.123Z,25.25
2017-07-27T17:29:05.530Z,25.17
2017-07-27T17:31:32.914Z,25.18
2017-07-27T17:34:00.312Z,25.10
2017-07-27T17:36:27.694Z,25.04
2017-07-27T17:38:55.084Z,25.04
2017-07-27T17:41:22.471Z,24.92
2017-07-27T17:43:49.847Z,24.81
2017-07-27T17:46:17.230Z,24.80
2017-07-27T17:48:44.611Z,24.76
2017-07-27T17:51:12.055Z,24.77
2017-07-27T17:53:39.435Z,24.76
2017-07-27T17:56:06.818Z,24.81
2017-07-27T17:58:34.197Z,24.85
2017-07-27T18:01:01.590Z,24.77
2017-07-27T18:03:28.966Z,24.77
2017-07-27T18:05:56.360Z,24.79
2017-07-27T18:08:23.746Z,24.74
2017-07-27T18:10:51.130Z,24.67
2017-07-27T18:13:18.510Z,24.69
2017-07-27T18:15:45.898Z,24.76
2017-07-27T18:18:13.278Z,24.78
2017-07-27T18:20:40.665Z,24.85
2017-07-27T18:23:08.050Z,24.86
2017-07-27T18:25:35.434Z,24.88
2017-07-27T18:28:02.824Z,24.93
2017-07-27T18:30:30.211Z,24.99
2017-07-27T18:32:57.599Z,24.94
2017-07-27T18:35:24.991Z,24.81
2017-07-27T18:37:52.381Z,24.87
2017-07-27T18:40:19.774Z,24.88
2017-07-27T18:42:47.146Z,24.90
2017-07-27T18:45:14.550Z,24.82
2017-07-27T18:47:41.940Z,24.82
2017-07-27T18:50:09.326Z,24.78
2017-07-27T18:52:37.002Z,24.80
2017-07-27T18:55:04.413Z,24.83
2017-07-27T18:57:31.810Z,24.82
2017-07-27T18:59:59.190Z,24.78
2017-07-27T19:02:31.421Z,24.77
2017-07-27T19:04:58.801Z,24.80
2017-07-27T19:07:26.190Z,24.79
2017-07-27T19:09:53.564Z,24.72
2017-07-27T19:12:20.951Z,24.78
2017-07-27T19:14:48.334Z,24.77
2017-07-27T19:17:15.722Z,24.74
2017-07-27T19:19:43.114Z,24.68
2017-07-27T19:22:10.510Z,24.59
2017-07-27T19:24:37.886Z,24.57
2017-07-27T19:27:05.295Z,24.46
2017-07-27T19:29:32.706Z,24.46
2017-07-27T19:32:00.098Z,24.46
2017-07-27T19:34:27.699Z,24.48
2017-07-27T19:36:55.082Z,24.46
2017-07-27T19:39:22.489Z,24.38
2017-07-27T19:41:49.870Z,24.34
2017-07-27T19:44:17.251Z,24.25
2017-07-27T19:46:44.648Z,24.26
2017-07-27T19:49:12.034Z,24.25
2017-07-27T19:51:39.427Z,24.25
2017-07-27T19:54:06.832Z,24.18
2017-07-27T19:56:34.210Z,24.10
2017-07-27T19:59:01.854Z,24.00
2017-07-27T20:01:29.242Z,24.00
2017-07-27T20:03:56.942Z,23.96
2017-07-27T20:06:24.331Z,23.84
2017-07-27T20:08:51.727Z,23.71
2017-07-27T20:11:19.112Z,23.69
2017-07-27T20:13:46.504Z,23.74
2017-07-27T20:16:13.892Z,23.72
2017-07-27T20:21:15.082Z,23.65
2017-07-27T20:23:42.523Z,23.58
2017-07-27T20:26:09.988Z,23.52
2017-07-27T20:28:37.462Z,23.44
2017-07-27T20:31:05.143Z,23.46
2017-07-27T20:33:32.674Z,23.43
2017-07-27T20:36:00.110Z,23.38
2017-07-27T20:38:27.530Z,23.30
2017-07-27T20:40:54.928Z,23.17
2017-07-27T20:43:22.315Z,23.05
2017-07-27T20:45:49.694Z,23.01
2017-07-27T20:48:17.130Z,22.89
2017-07-27T20:50:44.509Z,22.92
2017-07-27T20:53:12.650Z,22.88
2017-07-27T20:55:41.117Z,22.92
2017-07-27T20:58:08.521Z,22.86
2017-07-27T21:00:35.912Z,22.87
2017-07-27T21:03:03.298Z,22.97
2017-07-27T21:05:30.678Z,22.83
2017-07-27T21:07:58.077Z,22.69
2017-07-27T21:10:25.459Z,22.62
2017-07-27T21:12:52.858Z,22.39
2017-07-27T21:15:20.247Z,22.35
2017-07-27T21:17:47.636Z,22.28
2017-07-27T21:20:15.022Z,22.27
2017-07-27T21:22:42.561Z,22.35
2017-07-27T21:25:09.985Z,22.23
2017-07-27T21:27:37.627Z,22.22
2017-07-27T21:30:05.025Z,22.34
2017-07-27T21:32:32.415Z,22.31
2017-07-27T21:34:59.807Z,22.30
2017-07-27T21:37:27.183Z,22.40
2017-07-27T21:39:54.594Z,22.38
2017-07-27T21:42:21.971Z,22.31
2017-07-27T21:44:49.359Z,22.24
2017-07-27T21:47:16.749Z,22.23
2017-07-27T21:49:44.135Z,22.29
2017-07-27T21:52:11.523Z,22.22
2017-07-27T21:54:39.133Z,22.25
2017-07-27T21:57:06.510Z,22.21
2017-07-27T21:59:33.934Z,22.17
2017-07-27T22:02:01.324Z,22.16
2017-07-27T22:04:28.714Z,22.14
2017-07-27T22:06:56.102Z,22.11
2017-07-27T22:09:23.526Z,22.13
2017-07-27T22:11:50.914Z,22.12
2017-07-27T22:14:18.524Z,22.03
2017-07-27T22:16:45.915Z,22.04
2017-07-27T22:19:13.306Z,22.00
2017-07-27T22:21:40.699Z,22.00
2017-07-27T22:24:08.083Z,21.99
2017-07-27T22:26:35.470Z,21.96
2017-07-27T22:29:02.872Z,21.81
2017-07-27T22:31:30.270Z,21.79
2017-07-27T22:33:57.654Z,21.75
2017-07-27T22:36:25.058Z,21.73
2017-07-27T22:38:52.443Z,21.70
2017-07-27T22:41:19.843Z,21.64
2017-07-27T22:43:47.231Z,21.75
2017-07-27T22:46:14.631Z,21.75
2017-07-27T22:48:42.018Z,21.68
2017-07-27T22:51:09.416Z,21.69
2017-07-27T22:53:36.851Z,21.63
2017-07-27T22:56:04.267Z,21.55
2017-07-27T22:58:31.669Z,21.55
2017-07-27T23:00:59.058Z,21.58
2017-07-27T23:03:26.450Z,21.60
2017-07-27T23:05:53.846Z,21.66
2017-07-27T23:08:21.244Z,21.50
2017-07-27T23:10:48.634Z,21.47
2017-07-27T23:13:16.031Z,21.47
2017-07-27T23:15:44.291Z,21.50
2017-07-27T23:18:11.682Z,21.54
2017-07-27T23:20:39.086Z,21.37
2017-07-27T23:23:06.488Z,21.24
2017-07-27T23:25:33.878Z,21.16
2017-07-27T23:28:01.277Z,21.06
2017-07-27T23:30:28.679Z,20.91
2017-07-27T23:32:56.063Z,20.84
2017-07-27T23:35:23.479Z,20.74
2017-07-27T23:37:50.872Z,20.59
2017-07-27T23:40:18.570Z,20.45
2017-07-27T23:42:45.950Z,20.43
2017-07-27T23:45:13.338Z,20.37
2017-07-27T23:47:40.742Z,20.46
2017-07-27T23:50:08.127Z,20.52
2017-07-27T23:52:35.531Z,20.57
2017-07-27T23:55:02.922Z,20.63
2017-07-27T23:57:30.327Z,20.64
2017-07-27T23:59:58.007Z,20.63
